sensor_id;sensor_type;location;lat;lon;timestamp;pressure;altitude;pressure_sealevel;temperature;humidity
76331;BME280;65148;51.912;15.570;2023-02-28T00:11:27;103030.73;;;1.83;71.00
76331;BME280;65148;51.912;15.570;2023-02-28T00:26:28;103032.38;;;1.84;72.29
76331;BME280;65148;51.912;15.570;2023-02-28T00:41:29;103041.49;;;1.75;73.51
76331;BME280;65148;51.912;15.570;2023-02-28T00:56:50;103034.16;;;1.61;72.58
76331;BME280;65148;51.912;15.570;2023-02-28T01:11:51;103031.77;;;1.66;75.46
76331;BME280;65148;51.912;15.570;2023-02-28T01:26:52;103036.81;;;1.69;76.14
76331;BME280;65148;51.912;15.570;2023-02-28T01:41:53;103027.95;;;1.61;77.33
76331;BME280;65148;51.912;15.570;2023-02-28T01:57:22;103019.40;;;1.57;76.75
76331;BME280;65148;51.912;15.570;2023-02-28T02:43:16;102998.29;;;1.38;78.44
76331;BME280;65148;51.912;15.570;2023-02-28T02:58:24;103006.84;;;1.33;77.09
76331;BME280;65148;51.912;15.570;2023-02-28T03:44:21;103015.25;;;0.90;75.62
76331;BME280;65148;51.912;15.570;2023-02-28T03:59:56;103031.85;;;0.85;75.68
76331;BME280;65148;51.912;15.570;2023-02-28T04:15:00;103024.63;;;1.02;75.36
76331;BME280;65148;51.912;15.570;2023-02-28T04:30:01;103038.52;;;0.89;76.23
76331;BME280;65148;51.912;15.570;2023-02-28T04:45:03;103039.38;;;0.82;76.12
76331;BME280;65148;51.912;15.570;2023-02-28T05:00:19;103046.05;;;0.61;77.01
76331;BME280;65148;51.912;15.570;2023-02-28T05:15:20;103056.70;;;0.45;77.73
76331;BME280;65148;51.912;15.570;2023-02-28T05:30:22;103072.07;;;0.35;77.90
76331;BME280;65148;51.912;15.570;2023-02-28T05:45:23;103084.29;;;0.29;78.41
76331;BME280;65148;51.912;15.570;2023-02-28T06:00:48;103093.47;;;-0.07;79.98
76331;BME280;65148;51.912;15.570;2023-02-28T06:15:49;103097.68;;;-0.05;81.33
76331;BME280;65148;51.912;15.570;2023-02-28T06:30:50;103112.37;;;-0.09;81.38
76331;BME280;65148;51.912;15.570;2023-02-28T06:45:55;103116.76;;;0.00;81.68
76331;BME280;65148;51.912;15.570;2023-02-28T07:01:16;103118.55;;;0.18;82.01
76331;BME280;65148;51.912;15.570;2023-02-28T07:16:18;103130.60;;;0.56;81.19
76331;BME280;65148;51.912;15.570;2023-02-28T07:31:19;103131.58;;;0.97;79.63
76331;BME280;65148;51.912;15.570;2023-02-28T07:46:20;103146.53;;;1.32;78.47
76331;BME280;65148;51.912;15.570;2023-02-28T08:01:44;103146.22;;;1.67;75.58
76331;BME280;65148;51.912;15.570;2023-02-28T08:16:45;103145.13;;;2.25;71.62
76331;BME280;65148;51.912;15.570;2023-02-28T08:31:46;103152.19;;;2.65;69.76
76331;BME280;65148;51.912;15.570;2023-02-28T08:46:48;103143.49;;;3.40;61.79
76331;BME280;65148;51.912;15.570;2023-02-28T09:02:14;103151.74;;;3.61;58.37
76331;BME280;65148;51.912;15.570;2023-02-28T09:17:16;103154.00;;;4.10;56.04
76331;BME280;65148;51.912;15.570;2023-02-28T09:32:17;103139.94;;;4.58;55.91
76331;BME280;65148;51.912;15.570;2023-02-28T09:47:30;103141.49;;;4.82;54.42
76331;BME280;65148;51.912;15.570;2023-02-28T10:02:57;103144.01;;;4.84;53.67
76331;BME280;65148;51.912;15.570;2023-02-28T10:18:05;103131.73;;;4.81;53.93
76331;BME280;65148;51.912;15.570;2023-02-28T10:48:45;103133.57;;;5.17;54.66
76331;BME280;65148;51.912;15.570;2023-02-28T11:03:51;103124.61;;;6.96;50.46
76331;BME280;65148;51.912;15.570;2023-02-28T11:18:57;103123.84;;;7.29;47.75
76331;BME280;65148;51.912;15.570;2023-02-28T11:34:26;103112.15;;;5.58;49.69
76331;BME280;65148;51.912;15.570;2023-02-28T11:49:35;103092.80;;;7.51;45.05
76331;BME280;65148;51.912;15.570;2023-02-28T12:35:32;103039.33;;;8.62;42.66
76331;BME280;65148;51.912;15.570;2023-02-28T12:50:35;103029.27;;;8.69;43.42
76331;BME280;65148;51.912;15.570;2023-02-28T13:21:09;103011.68;;;8.40;41.56
76331;BME280;65148;51.912;15.570;2023-02-28T14:05:23;102987.95;;;7.45;45.01
76331;BME280;65148;51.912;15.570;2023-02-28T14:20:31;102978.37;;;7.43;44.81
76331;BME280;65148;51.912;15.570;2023-02-28T14:35:44;102963.60;;;6.99;46.22
76331;BME280;65148;51.912;15.570;2023-02-28T14:51:00;102965.47;;;7.18;46.44
76331;BME280;65148;51.912;15.570;2023-02-28T15:06:12;102971.05;;;6.64;46.37
76331;BME280;65148;51.912;15.570;2023-02-28T15:21:18;102970.23;;;6.64;45.45
76331;BME280;65148;51.912;15.570;2023-02-28T15:36:40;102949.29;;;6.18;47.99
76331;BME280;65148;51.912;15.570;2023-02-28T15:51:42;102944.91;;;6.17;48.41
76331;BME280;65148;51.912;15.570;2023-02-28T16:07:12;102952.82;;;5.71;48.38
76331;BME280;65148;51.912;15.570;2023-02-28T16:21:52;102959.48;;;5.12;51.91
76331;BME280;65148;51.912;15.570;2023-02-28T16:37:15;102968.25;;;4.29;54.14
76331;BME280;65148;51.912;15.570;2023-02-28T16:52:16;102972.14;;;3.76;56.72
76331;BME280;65148;51.912;15.570;2023-02-28T17:07:18;102988.97;;;3.11;59.94
76331;BME280;65148;51.912;15.570;2023-02-28T17:22:21;103006.07;;;2.50;62.58
76331;BME280;65148;51.912;15.570;2023-02-28T17:37:35;103009.05;;;1.85;65.77
76331;BME280;65148;51.912;15.570;2023-02-28T17:52:37;103003.78;;;1.53;67.69
76331;BME280;65148;51.912;15.570;2023-02-28T18:07:39;103003.34;;;1.25;69.05
76331;BME280;65148;51.912;15.570;2023-02-28T18:22:42;102996.98;;;1.01;70.39
76331;BME280;65148;51.912;15.570;2023-02-28T18:38:12;103008.52;;;0.78;71.65
76331;BME280;65148;51.912;15.570;2023-02-28T18:53:14;102999.31;;;0.64;71.99
76331;BME280;65148;51.912;15.570;2023-02-28T19:08:16;103008.51;;;0.53;72.65
76331;BME280;65148;51.912;15.570;2023-02-28T19:23:17;103012.98;;;0.36;73.41
76331;BME280;65148;51.912;15.570;2023-02-28T19:38:32;103004.86;;;0.12;75.46
76331;BME280;65148;51.912;15.570;2023-02-28T19:53:35;103010.72;;;0.08;75.37
76331;BME280;65148;51.912;15.570;2023-02-28T20:08:37;103005.49;;;-0.02;76.09
76331;BME280;65148;51.912;15.570;2023-02-28T20:23:41;102991.03;;;-0.17;76.62
76331;BME280;65148;51.912;15.570;2023-02-28T20:39:04;102992.69;;;-0.50;79.36
76331;BME280;65148;51.912;15.570;2023-02-28T20:54:07;102991.34;;;-0.54;78.47
76331;BME280;65148;51.912;15.570;2023-02-28T21:09:13;103009.85;;;-0.61;78.25
76331;BME280;65148;51.912;15.570;2023-02-28T21:24:17;103000.73;;;-0.76;78.66
76331;BME280;65148;51.912;15.570;2023-02-28T21:39:32;102998.23;;;-0.95;79.86
76331;BME280;65148;51.912;15.570;2023-02-28T21:54:33;103021.70;;;-1.07;79.91
76331;BME280;65148;51.912;15.570;2023-02-28T22:09:36;103020.47;;;-1.13;79.67
76331;BME280;65148;51.912;15.570;2023-02-28T22:24:37;103033.23;;;-1.24;79.72
76331;BME280;65148;51.912;15.570;2023-02-28T22:40:02;103027.99;;;-1.61;81.06
76331;BME280;65148;51.912;15.570;2023-02-28T22:55:04;103032.20;;;-1.59;80.42
76331;BME280;65148;51.912;15.570;2023-02-28T23:10:11;103036.76;;;-1.69;80.91
76331;BME280;65148;51.912;15.570;2023-02-28T23:25:12;103055.65;;;-1.80;80.95
76331;BME280;65148;51.912;15.570;2023-02-28T23:40:35;103049.82;;;-1.93;81.24
76331;BME280;65148;51.912;15.570;2023-02-28T23:55:36;103047.00;;;-1.92;80.87
